sensor_id;sensor_type;location;lat;lon;timestamp;P1;durP1;ratioP1;P2;durP2;ratioP2
67986;SDS011;54767;53.800;15.956;2023-04-25T00:01:42;3.40;;;2.70;;
67986;SDS011;54767;53.800;15.956;2023-04-25T00:04:08;3.00;;;2.60;;
67986;SDS011;54767;53.800;15.956;2023-04-25T00:06:36;3.30;;;2.70;;
67986;SDS011;54767;53.800;15.956;2023-04-25T00:09:03;6.30;;;2.90;;
67986;SDS011;54767;53.800;15.956;2023-04-25T00:11:33;3.10;;;2.80;;
67986;SDS011;54767;53.800;15.956;2023-04-25T00:14:00;3.00;;;2.80;;
67986;SDS011;54767;53.800;15.956;2023-04-25T00:16:29;3.40;;;2.60;;
67986;SDS011;54767;53.800;15.956;2023-04-25T00:19:00;2.50;;;2.30;;
67986;SDS011;54767;53.800;15.956;2023-04-25T00:21:28;3.00;;;2.70;;
67986;SDS011;54767;53.800;15.956;2023-04-25T00:23:55;3.00;;;2.70;;
67986;SDS011;54767;53.800;15.956;2023-04-25T00:26:22;2.90;;;2.60;;
67986;SDS011;54767;53.800;15.956;2023-04-25T00:28:49;4.40;;;2.80;;
67986;SDS011;54767;53.800;15.956;2023-04-25T00:31:16;3.00;;;2.40;;
67986;SDS011;54767;53.800;15.956;2023-04-25T00:33:43;4.00;;;2.70;;
67986;SDS011;54767;53.800;15.956;2023-04-25T00:36:10;2.70;;;2.50;;
67986;SDS011;54767;53.800;15.956;2023-04-25T00:38:37;2.80;;;2.60;;
67986;SDS011;54767;53.800;15.956;2023-04-25T00:41:05;2.80;;;2.50;;
67986;SDS011;54767;53.800;15.956;2023-04-25T00:43:33;2.70;;;2.50;;
67986;SDS011;54767;53.800;15.956;2023-04-25T00:46:02;3.50;;;2.60;;
67986;SDS011;54767;53.800;15.956;2023-04-25T00:48:29;2.60;;;2.40;;
67986;SDS011;54767;53.800;15.956;2023-04-25T00:50:57;2.80;;;2.60;;
67986;SDS011;54767;53.800;15.956;2023-04-25T00:53:26;2.80;;;2.60;;
67986;SDS011;54767;53.800;15.956;2023-04-25T00:55:53;2.90;;;2.70;;
67986;SDS011;54767;53.800;15.956;2023-04-25T00:58:21;3.10;;;2.80;;
67986;SDS011;54767;53.800;15.956;2023-04-25T01:00:49;3.80;;;2.90;;
67986;SDS011;54767;53.800;15.956;2023-04-25T01:03:18;2.90;;;2.60;;
67986;SDS011;54767;53.800;15.956;2023-04-25T01:05:48;3.30;;;2.90;;
67986;SDS011;54767;53.800;15.956;2023-04-25T01:08:16;3.70;;;3.10;;
67986;SDS011;54767;53.800;15.956;2023-04-25T01:10:43;4.40;;;3.10;;
67986;SDS011;54767;53.800;15.956;2023-04-25T01:13:10;3.20;;;2.80;;
67986;SDS011;54767;53.800;15.956;2023-04-25T01:15:37;3.20;;;2.90;;
67986;SDS011;54767;53.800;15.956;2023-04-25T01:18:04;3.60;;;3.00;;
67986;SDS011;54767;53.800;15.956;2023-04-25T01:20:32;3.00;;;2.70;;
67986;SDS011;54767;53.800;15.956;2023-04-25T01:22:59;3.60;;;2.90;;
67986;SDS011;54767;53.800;15.956;2023-04-25T01:25:30;4.00;;;2.70;;
67986;SDS011;54767;53.800;15.956;2023-04-25T01:27:58;4.00;;;2.60;;
67986;SDS011;54767;53.800;15.956;2023-04-25T01:30:27;2.80;;;2.40;;
67986;SDS011;54767;53.800;15.956;2023-04-25T01:32:56;4.50;;;2.40;;
67986;SDS011;54767;53.800;15.956;2023-04-25T01:35:23;2.80;;;2.40;;
67986;SDS011;54767;53.800;15.956;2023-04-25T01:37:50;4.70;;;3.20;;
67986;SDS011;54767;53.800;15.956;2023-04-25T01:40:17;4.30;;;3.10;;
67986;SDS011;54767;53.800;15.956;2023-04-25T01:42:45;3.80;;;3.20;;
67986;SDS011;54767;53.800;15.956;2023-04-25T01:45:12;5.50;;;3.60;;
67986;SDS011;54767;53.800;15.956;2023-04-25T01:47:39;6.50;;;3.30;;
67986;SDS011;54767;53.800;15.956;2023-04-25T01:50:07;5.10;;;3.30;;
67986;SDS011;54767;53.800;15.956;2023-04-25T01:52:34;4.30;;;3.40;;
67986;SDS011;54767;53.800;15.956;2023-04-25T01:55:01;6.60;;;3.90;;
67986;SDS011;54767;53.800;15.956;2023-04-25T01:57:29;5.20;;;4.00;;
67986;SDS011;54767;53.800;15.956;2023-04-25T01:59:58;4.10;;;3.40;;
67986;SDS011;54767;53.800;15.956;2023-04-25T02:02:27;3.80;;;3.10;;
67986;SDS011;54767;53.800;15.956;2023-04-25T02:04:54;4.50;;;3.40;;
67986;SDS011;54767;53.800;15.956;2023-04-25T02:07:21;4.40;;;3.20;;
67986;SDS011;54767;53.800;15.956;2023-04-25T02:09:48;5.10;;;3.20;;
67986;SDS011;54767;53.800;15.956;2023-04-25T02:12:15;5.20;;;3.60;;
67986;SDS011;54767;53.800;15.956;2023-04-25T02:14:41;4.60;;;3.30;;
67986;SDS011;54767;53.800;15.956;2023-04-25T02:17:08;3.80;;;3.20;;
67986;SDS011;54767;53.800;15.956;2023-04-25T02:19:35;4.00;;;3.20;;
67986;SDS011;54767;53.800;15.956;2023-04-25T02:22:02;5.50;;;3.70;;
67986;SDS011;54767;53.800;15.956;2023-04-25T02:24:29;6.10;;;3.40;;
67986;SDS011;54767;53.800;15.956;2023-04-25T02:27:00;5.30;;;3.80;;
67986;SDS011;54767;53.800;15.956;2023-04-25T02:29:27;4.10;;;3.60;;
67986;SDS011;54767;53.800;15.956;2023-04-25T02:31:54;5.10;;;3.70;;
67986;SDS011;54767;53.800;15.956;2023-04-25T02:34:22;6.60;;;4.20;;
67986;SDS011;54767;53.800;15.956;2023-04-25T02:36:49;4.20;;;3.70;;
67986;SDS011;54767;53.800;15.956;2023-04-25T02:39:18;4.80;;;4.10;;
67986;SDS011;54767;53.800;15.956;2023-04-25T02:41:45;5.60;;;3.70;;
67986;SDS011;54767;53.800;15.956;2023-04-25T02:44:11;4.90;;;3.70;;
67986;SDS011;54767;53.800;15.956;2023-04-25T02:46:38;5.00;;;3.60;;
67986;SDS011;54767;53.800;15.956;2023-04-25T02:49:06;4.50;;;3.80;;
67986;SDS011;54767;53.800;15.956;2023-04-25T02:51:33;4.40;;;3.40;;
67986;SDS011;54767;53.800;15.956;2023-04-25T02:54:00;4.20;;;3.20;;
67986;SDS011;54767;53.800;15.956;2023-04-25T02:56:26;4.80;;;3.20;;
67986;SDS011;54767;53.800;15.956;2023-04-25T02:58:53;3.90;;;3.20;;
67986;SDS011;54767;53.800;15.956;2023-04-25T03:03:50;3.90;;;3.00;;
67986;SDS011;54767;53.800;15.956;2023-04-25T03:06:17;3.10;;;2.80;;
67986;SDS011;54767;53.800;15.956;2023-04-25T03:08:44;3.40;;;3.10;;
67986;SDS011;54767;53.800;15.956;2023-04-25T03:11:10;3.10;;;2.80;;
67986;SDS011;54767;53.800;15.956;2023-04-25T03:13:37;3.30;;;2.70;;
67986;SDS011;54767;53.800;15.956;2023-04-25T03:16:04;3.20;;;2.90;;
67986;SDS011;54767;53.800;15.956;2023-04-25T03:18:31;3.00;;;2.70;;
67986;SDS011;54767;53.800;15.956;2023-04-25T03:20:58;3.20;;;2.80;;
67986;SDS011;54767;53.800;15.956;2023-04-25T03:23:25;4.00;;;2.80;;
67986;SDS011;54767;53.800;15.956;2023-04-25T03:25:52;3.80;;;2.60;;
67986;SDS011;54767;53.800;15.956;2023-04-25T03:28:19;5.20;;;2.70;;
67986;SDS011;54767;53.800;15.956;2023-04-25T03:30:46;4.10;;;3.00;;
67986;SDS011;54767;53.800;15.956;2023-04-25T03:33:13;2.90;;;2.70;;
67986;SDS011;54767;53.800;15.956;2023-04-25T03:35:39;4.30;;;3.00;;
67986;SDS011;54767;53.800;15.956;2023-04-25T03:38:06;3.90;;;2.50;;
67986;SDS011;54767;53.800;15.956;2023-04-25T03:40:33;3.00;;;2.60;;
67986;SDS011;54767;53.800;15.956;2023-04-25T03:43:00;4.40;;;3.10;;
67986;SDS011;54767;53.800;15.956;2023-04-25T03:45:27;3.30;;;2.60;;
67986;SDS011;54767;53.800;15.956;2023-04-25T03:47:54;3.20;;;2.90;;
67986;SDS011;54767;53.800;15.956;2023-04-25T03:50:20;3.10;;;2.60;;
67986;SDS011;54767;53.800;15.956;2023-04-25T03:52:47;4.60;;;2.30;;
67986;SDS011;54767;53.800;15.956;2023-04-25T03:55:14;4.30;;;2.80;;
67986;SDS011;54767;53.800;15.956;2023-04-25T03:57:41;3.40;;;2.60;;
67986;SDS011;54767;53.800;15.956;2023-04-25T04:00:08;3.60;;;2.50;;
67986;SDS011;54767;53.800;15.956;2023-04-25T04:02:36;3.60;;;2.80;;
67986;SDS011;54767;53.800;15.956;2023-04-25T04:05:04;3.10;;;2.80;;
67986;SDS011;54767;53.800;15.956;2023-04-25T04:07:32;4.10;;;2.70;;
67986;SDS011;54767;53.800;15.956;2023-04-25T04:09:59;3.10;;;2.80;;
67986;SDS011;54767;53.800;15.956;2023-04-25T04:12:26;3.10;;;2.80;;
67986;SDS011;54767;53.800;15.956;2023-04-25T04:14:53;3.40;;;2.80;;
67986;SDS011;54767;53.800;15.956;2023-04-25T04:17:20;3.90;;;2.70;;
67986;SDS011;54767;53.800;15.956;2023-04-25T04:19:47;4.20;;;3.00;;
67986;SDS011;54767;53.800;15.956;2023-04-25T04:22:13;5.50;;;3.40;;
67986;SDS011;54767;53.800;15.956;2023-04-25T04:24:40;3.50;;;3.00;;
67986;SDS011;54767;53.800;15.956;2023-04-25T04:27:10;5.70;;;3.20;;
67986;SDS011;54767;53.800;15.956;2023-04-25T04:29:39;5.00;;;3.40;;
67986;SDS011;54767;53.800;15.956;2023-04-25T04:32:05;5.20;;;3.40;;
67986;SDS011;54767;53.800;15.956;2023-04-25T04:34:33;4.60;;;3.70;;
67986;SDS011;54767;53.800;15.956;2023-04-25T04:37:02;4.00;;;3.30;;
67986;SDS011;54767;53.800;15.956;2023-04-25T04:39:29;3.90;;;2.90;;
67986;SDS011;54767;53.800;15.956;2023-04-25T04:41:55;4.10;;;3.00;;
67986;SDS011;54767;53.800;15.956;2023-04-25T04:44:23;4.30;;;3.10;;
67986;SDS011;54767;53.800;15.956;2023-04-25T04:46:51;4.30;;;3.10;;
67986;SDS011;54767;53.800;15.956;2023-04-25T04:49:18;4.00;;;3.00;;
67986;SDS011;54767;53.800;15.956;2023-04-25T04:51:44;4.60;;;3.20;;
67986;SDS011;54767;53.800;15.956;2023-04-25T04:54:12;6.40;;;3.30;;
67986;SDS011;54767;53.800;15.956;2023-04-25T04:56:39;4.80;;;3.50;;
67986;SDS011;54767;53.800;15.956;2023-04-25T04:59:05;7.00;;;3.70;;
67986;SDS011;54767;53.800;15.956;2023-04-25T05:01:33;5.10;;;3.60;;
67986;SDS011;54767;53.800;15.956;2023-04-25T05:04:02;7.00;;;3.70;;
67986;SDS011;54767;53.800;15.956;2023-04-25T05:06:30;7.20;;;4.10;;
67986;SDS011;54767;53.800;15.956;2023-04-25T05:08:57;6.10;;;3.80;;
67986;SDS011;54767;53.800;15.956;2023-04-25T05:11:24;6.40;;;3.90;;
67986;SDS011;54767;53.800;15.956;2023-04-25T05:13:51;5.20;;;3.80;;
67986;SDS011;54767;53.800;15.956;2023-04-25T05:16:20;5.70;;;4.10;;
67986;SDS011;54767;53.800;15.956;2023-04-25T05:18:47;5.30;;;3.80;;
67986;SDS011;54767;53.800;15.956;2023-04-25T05:21:14;8.50;;;4.00;;
67986;SDS011;54767;53.800;15.956;2023-04-25T05:23:41;8.40;;;4.10;;
67986;SDS011;54767;53.800;15.956;2023-04-25T05:26:07;6.40;;;4.00;;
67986;SDS011;54767;53.800;15.956;2023-04-25T05:28:40;5.80;;;3.50;;
67986;SDS011;54767;53.800;15.956;2023-04-25T05:31:11;7.00;;;3.80;;
67986;SDS011;54767;53.800;15.956;2023-04-25T05:33:38;6.70;;;4.00;;
67986;SDS011;54767;53.800;15.956;2023-04-25T05:36:05;5.00;;;3.70;;
67986;SDS011;54767;53.800;15.956;2023-04-25T05:38:32;4.80;;;3.50;;
67986;SDS011;54767;53.800;15.956;2023-04-25T05:41:01;6.50;;;3.80;;
67986;SDS011;54767;53.800;15.956;2023-04-25T05:43:27;4.80;;;3.70;;
67986;SDS011;54767;53.800;15.956;2023-04-25T05:45:54;4.70;;;3.40;;
67986;SDS011;54767;53.800;15.956;2023-04-25T05:48:21;5.70;;;3.50;;
67986;SDS011;54767;53.800;15.956;2023-04-25T05:50:48;5.70;;;3.50;;
67986;SDS011;54767;53.800;15.956;2023-04-25T05:53:15;5.30;;;3.70;;
67986;SDS011;54767;53.800;15.956;2023-04-25T05:55:41;7.60;;;3.80;;
67986;SDS011;54767;53.800;15.956;2023-04-25T05:58:08;5.10;;;3.50;;
67986;SDS011;54767;53.800;15.956;2023-04-25T06:00:35;5.80;;;3.70;;
67986;SDS011;54767;53.800;15.956;2023-04-25T06:03:02;5.40;;;3.40;;
67986;SDS011;54767;53.800;15.956;2023-04-25T06:05:29;4.60;;;3.70;;
67986;SDS011;54767;53.800;15.956;2023-04-25T06:07:56;7.00;;;3.90;;
67986;SDS011;54767;53.800;15.956;2023-04-25T06:10:23;6.70;;;4.00;;
67986;SDS011;54767;53.800;15.956;2023-04-25T06:12:50;5.00;;;3.80;;
67986;SDS011;54767;53.800;15.956;2023-04-25T06:15:16;6.40;;;3.80;;
67986;SDS011;54767;53.800;15.956;2023-04-25T06:17:54;8.30;;;4.00;;
67986;SDS011;54767;53.800;15.956;2023-04-25T06:20:22;6.70;;;3.70;;
67986;SDS011;54767;53.800;15.956;2023-04-25T06:22:50;4.70;;;3.90;;
67986;SDS011;54767;53.800;15.956;2023-04-25T06:25:18;6.30;;;3.90;;
67986;SDS011;54767;53.800;15.956;2023-04-25T06:27:45;6.10;;;4.40;;
67986;SDS011;54767;53.800;15.956;2023-04-25T06:30:11;7.90;;;4.30;;
67986;SDS011;54767;53.800;15.956;2023-04-25T06:32:38;6.90;;;4.10;;
67986;SDS011;54767;53.800;15.956;2023-04-25T06:35:06;5.20;;;3.90;;
67986;SDS011;54767;53.800;15.956;2023-04-25T06:37:33;7.80;;;4.10;;
67986;SDS011;54767;53.800;15.956;2023-04-25T06:39:59;5.10;;;4.10;;
67986;SDS011;54767;53.800;15.956;2023-04-25T06:42:26;6.10;;;4.20;;
67986;SDS011;54767;53.800;15.956;2023-04-25T06:44:53;6.20;;;4.40;;
67986;SDS011;54767;53.800;15.956;2023-04-25T06:47:20;7.00;;;4.20;;
67986;SDS011;54767;53.800;15.956;2023-04-25T06:49:47;4.50;;;4.00;;
67986;SDS011;54767;53.800;15.956;2023-04-25T06:52:14;6.40;;;3.90;;
67986;SDS011;54767;53.800;15.956;2023-04-25T06:54:41;8.70;;;4.40;;
67986;SDS011;54767;53.800;15.956;2023-04-25T06:57:07;7.10;;;4.30;;
67986;SDS011;54767;53.800;15.956;2023-04-25T06:59:34;6.50;;;4.60;;
67986;SDS011;54767;53.800;15.956;2023-04-25T07:02:01;7.80;;;4.70;;
67986;SDS011;54767;53.800;15.956;2023-04-25T07:04:28;7.10;;;4.40;;
67986;SDS011;54767;53.800;15.956;2023-04-25T07:06:55;7.50;;;4.10;;
67986;SDS011;54767;53.800;15.956;2023-04-25T07:09:22;8.30;;;4.50;;
67986;SDS011;54767;53.800;15.956;2023-04-25T07:11:49;6.50;;;4.60;;
67986;SDS011;54767;53.800;15.956;2023-04-25T07:14:16;6.50;;;5.00;;
67986;SDS011;54767;53.800;15.956;2023-04-25T07:16:43;9.90;;;5.10;;
67986;SDS011;54767;53.800;15.956;2023-04-25T07:19:10;8.70;;;4.60;;
67986;SDS011;54767;53.800;15.956;2023-04-25T07:21:37;7.10;;;5.10;;
67986;SDS011;54767;53.800;15.956;2023-04-25T07:24:04;5.60;;;4.90;;
67986;SDS011;54767;53.800;15.956;2023-04-25T07:26:31;7.10;;;4.80;;
67986;SDS011;54767;53.800;15.956;2023-04-25T07:28:58;6.10;;;4.70;;
67986;SDS011;54767;53.800;15.956;2023-04-25T07:31:24;8.70;;;4.80;;
67986;SDS011;54767;53.800;15.956;2023-04-25T07:33:52;11.70;;;5.30;;
67986;SDS011;54767;53.800;15.956;2023-04-25T07:36:19;7.80;;;5.10;;
67986;SDS011;54767;53.800;15.956;2023-04-25T07:38:47;8.20;;;4.80;;
67986;SDS011;54767;53.800;15.956;2023-04-25T07:41:14;8.50;;;4.80;;
67986;SDS011;54767;53.800;15.956;2023-04-25T07:43:41;9.30;;;5.40;;
67986;SDS011;54767;53.800;15.956;2023-04-25T07:46:08;9.90;;;5.10;;
67986;SDS011;54767;53.800;15.956;2023-04-25T07:48:35;7.50;;;4.90;;
67986;SDS011;54767;53.800;15.956;2023-04-25T07:51:02;6.90;;;5.00;;
67986;SDS011;54767;53.800;15.956;2023-04-25T07:53:33;9.00;;;5.10;;
67986;SDS011;54767;53.800;15.956;2023-04-25T07:56:01;6.80;;;4.80;;
67986;SDS011;54767;53.800;15.956;2023-04-25T07:58:28;6.90;;;5.20;;
67986;SDS011;54767;53.800;15.956;2023-04-25T08:00:54;6.90;;;4.90;;
67986;SDS011;54767;53.800;15.956;2023-04-25T08:03:21;6.50;;;4.70;;
67986;SDS011;54767;53.800;15.956;2023-04-25T08:05:48;7.40;;;4.90;;
67986;SDS011;54767;53.800;15.956;2023-04-25T08:08:15;5.00;;;4.50;;
67986;SDS011;54767;53.800;15.956;2023-04-25T08:10:42;8.00;;;5.00;;
67986;SDS011;54767;53.800;15.956;2023-04-25T08:13:09;8.30;;;5.00;;
67986;SDS011;54767;53.800;15.956;2023-04-25T08:15:36;9.20;;;5.20;;
67986;SDS011;54767;53.800;15.956;2023-04-25T08:18:03;8.60;;;4.70;;
67986;SDS011;54767;53.800;15.956;2023-04-25T08:20:30;6.80;;;4.60;;
67986;SDS011;54767;53.800;15.956;2023-04-25T08:22:56;8.10;;;4.90;;
67986;SDS011;54767;53.800;15.956;2023-04-25T08:25:23;7.00;;;5.00;;
67986;SDS011;54767;53.800;15.956;2023-04-25T08:27:50;7.10;;;4.90;;
67986;SDS011;54767;53.800;15.956;2023-04-25T08:30:17;6.90;;;5.30;;
67986;SDS011;54767;53.800;15.956;2023-04-25T08:32:43;7.60;;;5.10;;
67986;SDS011;54767;53.800;15.956;2023-04-25T08:35:10;7.60;;;4.80;;
67986;SDS011;54767;53.800;15.956;2023-04-25T08:37:37;5.30;;;4.60;;
67986;SDS011;54767;53.800;15.956;2023-04-25T08:40:05;9.20;;;5.00;;
67986;SDS011;54767;53.800;15.956;2023-04-25T08:42:33;6.20;;;5.00;;
67986;SDS011;54767;53.800;15.956;2023-04-25T08:45:03;7.30;;;5.10;;
67986;SDS011;54767;53.800;15.956;2023-04-25T08:47:33;8.40;;;5.30;;
67986;SDS011;54767;53.800;15.956;2023-04-25T08:50:02;6.30;;;5.50;;
67986;SDS011;54767;53.800;15.956;2023-04-25T08:52:32;7.30;;;4.70;;
67986;SDS011;54767;53.800;15.956;2023-04-25T08:55:04;7.00;;;4.70;;
67986;SDS011;54767;53.800;15.956;2023-04-25T08:57:35;7.60;;;4.90;;
67986;SDS011;54767;53.800;15.956;2023-04-25T09:00:03;6.40;;;5.50;;
67986;SDS011;54767;53.800;15.956;2023-04-25T09:02:31;7.80;;;5.90;;
67986;SDS011;54767;53.800;15.956;2023-04-25T09:04:59;7.20;;;5.80;;
67986;SDS011;54767;53.800;15.956;2023-04-25T09:07:26;7.30;;;5.90;;
67986;SDS011;54767;53.800;15.956;2023-04-25T09:09:53;8.20;;;6.30;;
67986;SDS011;54767;53.800;15.956;2023-04-25T09:12:20;8.00;;;5.90;;
67986;SDS011;54767;53.800;15.956;2023-04-25T09:15:01;10.00;;;5.80;;
67986;SDS011;54767;53.800;15.956;2023-04-25T09:17:30;9.10;;;6.00;;
67986;SDS011;54767;53.800;15.956;2023-04-25T09:20:10;6.50;;;5.30;;
67986;SDS011;54767;53.800;15.956;2023-04-25T09:22:39;5.70;;;3.70;;
67986;SDS011;54767;53.800;15.956;2023-04-25T09:25:10;6.70;;;2.50;;
67986;SDS011;54767;53.800;15.956;2023-04-25T09:27:50;2.50;;;2.20;;
67986;SDS011;54767;53.800;15.956;2023-04-25T09:30:28;3.40;;;2.40;;
67986;SDS011;54767;53.800;15.956;2023-04-25T09:32:57;2.80;;;1.90;;
67986;SDS011;54767;53.800;15.956;2023-04-25T09:35:35;1.60;;;1.50;;
67986;SDS011;54767;53.800;15.956;2023-04-25T09:38:14;1.70;;;1.60;;
67986;SDS011;54767;53.800;15.956;2023-04-25T09:40:42;1.40;;;1.30;;
67986;SDS011;54767;53.800;15.956;2023-04-25T09:43:18;3.30;;;1.70;;
67986;SDS011;54767;53.800;15.956;2023-04-25T09:45:45;1.50;;;1.40;;
67986;SDS011;54767;53.800;15.956;2023-04-25T09:48:20;1.60;;;1.50;;
67986;SDS011;54767;53.800;15.956;2023-04-25T09:53:37;1.90;;;1.50;;
67986;SDS011;54767;53.800;15.956;2023-04-25T09:56:07;1.90;;;1.50;;
67986;SDS011;54767;53.800;15.956;2023-04-25T09:58:36;2.90;;;1.70;;
67986;SDS011;54767;53.800;15.956;2023-04-25T10:01:05;1.80;;;1.60;;
67986;SDS011;54767;53.800;15.956;2023-04-25T10:03:34;7.70;;;2.30;;
67986;SDS011;54767;53.800;15.956;2023-04-25T10:06:11;2.00;;;1.50;;
67986;SDS011;54767;53.800;15.956;2023-04-25T10:08:40;3.80;;;2.20;;
67986;SDS011;54767;53.800;15.956;2023-04-25T10:11:08;3.80;;;2.30;;
67986;SDS011;54767;53.800;15.956;2023-04-25T10:13:35;2.70;;;2.40;;
67986;SDS011;54767;53.800;15.956;2023-04-25T10:16:03;2.50;;;2.30;;
67986;SDS011;54767;53.800;15.956;2023-04-25T10:18:31;4.00;;;3.10;;
67986;SDS011;54767;53.800;15.956;2023-04-25T10:21:00;5.10;;;3.10;;
67986;SDS011;54767;53.800;15.956;2023-04-25T10:23:29;5.80;;;3.60;;
67986;SDS011;54767;53.800;15.956;2023-04-25T10:25:57;4.40;;;3.20;;
67986;SDS011;54767;53.800;15.956;2023-04-25T10:28:25;5.10;;;3.30;;
67986;SDS011;54767;53.800;15.956;2023-04-25T10:30:59;6.10;;;3.30;;
67986;SDS011;54767;53.800;15.956;2023-04-25T10:33:35;4.20;;;2.90;;
67986;SDS011;54767;53.800;15.956;2023-04-25T10:39:03;7.00;;;3.30;;
67986;SDS011;54767;53.800;15.956;2023-04-25T10:41:53;6.30;;;3.20;;
67986;SDS011;54767;53.800;15.956;2023-04-25T10:44:22;9.10;;;2.90;;
67986;SDS011;54767;53.800;15.956;2023-04-25T10:46:52;10.10;;;3.40;;
67986;SDS011;54767;53.800;15.956;2023-04-25T10:49:41;11.40;;;3.30;;
67986;SDS011;54767;53.800;15.956;2023-04-25T10:54:46;8.70;;;3.90;;
67986;SDS011;54767;53.800;15.956;2023-04-25T10:57:27;8.90;;;3.90;;
67986;SDS011;54767;53.800;15.956;2023-04-25T10:59:58;9.10;;;3.50;;
67986;SDS011;54767;53.800;15.956;2023-04-25T11:02:38;6.90;;;3.30;;
67986;SDS011;54767;53.800;15.956;2023-04-25T11:05:10;7.10;;;3.10;;
67986;SDS011;54767;53.800;15.956;2023-04-25T11:07:50;8.80;;;3.20;;
67986;SDS011;54767;53.800;15.956;2023-04-25T11:10:33;7.80;;;3.40;;
67986;SDS011;54767;53.800;15.956;2023-04-25T11:13:02;9.60;;;3.60;;
67986;SDS011;54767;53.800;15.956;2023-04-25T11:15:29;10.20;;;3.30;;
67986;SDS011;54767;53.800;15.956;2023-04-25T11:17:56;31.20;;;5.80;;
67986;SDS011;54767;53.800;15.956;2023-04-25T11:20:24;7.20;;;3.40;;
67986;SDS011;54767;53.800;15.956;2023-04-25T11:22:52;6.40;;;3.20;;
67986;SDS011;54767;53.800;15.956;2023-04-25T11:25:19;6.90;;;3.20;;
67986;SDS011;54767;53.800;15.956;2023-04-25T11:27:49;9.50;;;3.60;;
67986;SDS011;54767;53.800;15.956;2023-04-25T11:30:21;6.70;;;2.70;;
67986;SDS011;54767;53.800;15.956;2023-04-25T11:32:50;8.20;;;3.70;;
67986;SDS011;54767;53.800;15.956;2023-04-25T11:35:18;7.20;;;3.10;;
67986;SDS011;54767;53.800;15.956;2023-04-25T11:37:47;10.10;;;3.80;;
67986;SDS011;54767;53.800;15.956;2023-04-25T11:40:14;9.10;;;3.50;;
67986;SDS011;54767;53.800;15.956;2023-04-25T11:42:45;7.50;;;3.20;;
67986;SDS011;54767;53.800;15.956;2023-04-25T11:45:13;7.20;;;3.60;;
67986;SDS011;54767;53.800;15.956;2023-04-25T11:47:41;9.00;;;3.20;;
67986;SDS011;54767;53.800;15.956;2023-04-25T11:50:08;9.20;;;3.10;;
67986;SDS011;54767;53.800;15.956;2023-04-25T11:55:09;7.90;;;3.00;;
67986;SDS011;54767;53.800;15.956;2023-04-25T11:57:41;5.60;;;2.50;;
67986;SDS011;54767;53.800;15.956;2023-04-25T12:00:10;5.60;;;3.20;;
67986;SDS011;54767;53.800;15.956;2023-04-25T12:02:44;7.70;;;2.90;;
67986;SDS011;54767;53.800;15.956;2023-04-25T12:05:13;8.00;;;2.90;;
67986;SDS011;54767;53.800;15.956;2023-04-25T12:08:08;6.40;;;2.60;;
67986;SDS011;54767;53.800;15.956;2023-04-25T12:10:37;8.00;;;2.80;;
67986;SDS011;54767;53.800;15.956;2023-04-25T12:13:21;8.60;;;2.60;;
67986;SDS011;54767;53.800;15.956;2023-04-25T12:15:48;6.30;;;3.10;;
67986;SDS011;54767;53.800;15.956;2023-04-25T12:18:18;7.60;;;3.00;;
67986;SDS011;54767;53.800;15.956;2023-04-25T12:20:47;9.80;;;3.10;;
67986;SDS011;54767;53.800;15.956;2023-04-25T12:23:13;8.80;;;2.90;;
67986;SDS011;54767;53.800;15.956;2023-04-25T12:25:41;7.20;;;2.80;;
67986;SDS011;54767;53.800;15.956;2023-04-25T12:30:59;7.00;;;3.00;;
67986;SDS011;54767;53.800;15.956;2023-04-25T12:33:29;12.90;;;3.60;;
67986;SDS011;54767;53.800;15.956;2023-04-25T12:35:58;7.60;;;3.00;;
67986;SDS011;54767;53.800;15.956;2023-04-25T12:38:46;9.50;;;2.90;;
67986;SDS011;54767;53.800;15.956;2023-04-25T12:41:14;7.60;;;2.70;;
67986;SDS011;54767;53.800;15.956;2023-04-25T12:43:41;6.90;;;2.90;;
67986;SDS011;54767;53.800;15.956;2023-04-25T12:46:08;8.00;;;3.20;;
67986;SDS011;54767;53.800;15.956;2023-04-25T12:48:36;8.50;;;3.40;;
67986;SDS011;54767;53.800;15.956;2023-04-25T12:51:04;8.40;;;3.00;;
67986;SDS011;54767;53.800;15.956;2023-04-25T12:53:31;9.80;;;3.10;;
67986;SDS011;54767;53.800;15.956;2023-04-25T12:58:28;7.50;;;2.90;;
67986;SDS011;54767;53.800;15.956;2023-04-25T13:00:55;9.60;;;3.30;;
67986;SDS011;54767;53.800;15.956;2023-04-25T13:03:22;9.90;;;3.20;;
67986;SDS011;54767;53.800;15.956;2023-04-25T13:05:49;12.30;;;3.10;;
67986;SDS011;54767;53.800;15.956;2023-04-25T13:08:16;12.40;;;3.40;;
67986;SDS011;54767;53.800;15.956;2023-04-25T13:10:43;9.20;;;3.00;;
67986;SDS011;54767;53.800;15.956;2023-04-25T13:13:10;12.60;;;3.00;;
67986;SDS011;54767;53.800;15.956;2023-04-25T13:15:37;8.70;;;3.00;;
67986;SDS011;54767;53.800;15.956;2023-04-25T13:18:04;10.10;;;3.30;;
67986;SDS011;54767;53.800;15.956;2023-04-25T13:23:01;12.20;;;3.30;;
67986;SDS011;54767;53.800;15.956;2023-04-25T13:25:30;10.40;;;3.40;;
67986;SDS011;54767;53.800;15.956;2023-04-25T13:27:57;11.80;;;3.40;;
67986;SDS011;54767;53.800;15.956;2023-04-25T13:30:26;9.60;;;2.80;;
67986;SDS011;54767;53.800;15.956;2023-04-25T13:32:59;8.80;;;3.00;;
67986;SDS011;54767;53.800;15.956;2023-04-25T13:35:33;8.60;;;2.90;;
67986;SDS011;54767;53.800;15.956;2023-04-25T13:41:18;8.30;;;2.80;;
67986;SDS011;54767;53.800;15.956;2023-04-25T13:44:32;9.90;;;3.10;;
67986;SDS011;54767;53.800;15.956;2023-04-25T13:47:10;6.00;;;2.90;;
67986;SDS011;54767;53.800;15.956;2023-04-25T13:49:49;10.80;;;4.40;;
67986;SDS011;54767;53.800;15.956;2023-04-25T13:52:29;12.20;;;4.20;;
67986;SDS011;54767;53.800;15.956;2023-04-25T13:54:56;15.80;;;5.60;;
67986;SDS011;54767;53.800;15.956;2023-04-25T14:00:20;10.70;;;7.30;;
67986;SDS011;54767;53.800;15.956;2023-04-25T14:02:47;10.20;;;4.30;;
67986;SDS011;54767;53.800;15.956;2023-04-25T14:05:16;9.60;;;3.50;;
67986;SDS011;54767;53.800;15.956;2023-04-25T14:07:43;9.20;;;2.80;;
67986;SDS011;54767;53.800;15.956;2023-04-25T14:10:10;8.80;;;3.50;;
67986;SDS011;54767;53.800;15.956;2023-04-25T14:12:38;12.50;;;3.60;;
67986;SDS011;54767;53.800;15.956;2023-04-25T14:15:05;8.70;;;3.30;;
67986;SDS011;54767;53.800;15.956;2023-04-25T14:17:32;6.20;;;2.90;;
67986;SDS011;54767;53.800;15.956;2023-04-25T14:19:59;6.20;;;3.10;;
67986;SDS011;54767;53.800;15.956;2023-04-25T14:22:26;10.00;;;3.50;;
67986;SDS011;54767;53.800;15.956;2023-04-25T14:24:53;8.40;;;3.50;;
67986;SDS011;54767;53.800;15.956;2023-04-25T14:27:20;6.50;;;2.80;;
67986;SDS011;54767;53.800;15.956;2023-04-25T14:29:46;10.60;;;3.00;;
67986;SDS011;54767;53.800;15.956;2023-04-25T14:32:14;9.00;;;3.00;;
67986;SDS011;54767;53.800;15.956;2023-04-25T14:34:40;9.20;;;2.90;;
67986;SDS011;54767;53.800;15.956;2023-04-25T14:37:07;8.30;;;2.90;;
67986;SDS011;54767;53.800;15.956;2023-04-25T14:39:34;6.10;;;2.50;;
67986;SDS011;54767;53.800;15.956;2023-04-25T14:42:01;8.30;;;2.90;;
67986;SDS011;54767;53.800;15.956;2023-04-25T14:44:28;10.50;;;2.80;;
67986;SDS011;54767;53.800;15.956;2023-04-25T14:46:55;13.10;;;7.40;;
67986;SDS011;54767;53.800;15.956;2023-04-25T14:49:21;10.10;;;4.60;;
67986;SDS011;54767;53.800;15.956;2023-04-25T14:51:48;9.10;;;3.30;;
67986;SDS011;54767;53.800;15.956;2023-04-25T14:54:18;6.20;;;2.60;;
67986;SDS011;54767;53.800;15.956;2023-04-25T14:56:45;7.60;;;2.70;;
67986;SDS011;54767;53.800;15.956;2023-04-25T14:59:12;9.90;;;3.60;;
67986;SDS011;54767;53.800;15.956;2023-04-25T15:01:39;9.10;;;2.90;;
67986;SDS011;54767;53.800;15.956;2023-04-25T15:04:06;7.70;;;2.80;;
67986;SDS011;54767;53.800;15.956;2023-04-25T15:06:33;9.60;;;3.00;;
67986;SDS011;54767;53.800;15.956;2023-04-25T15:09:00;9.50;;;3.00;;